sim
Sign-in with your pilot id or email,
or register
Callsign
Passwort

Schedule Details

Flight Number: DLH2012
Departure: Munich Airport (EDDM) at 12:30
Arrival: Dusseldorf International Airport (EDDL) at 13:40
Route: Lufthansa Passenger Schedule. Enter filed route here before submitting Pirep.

Weather Information
Getting current METAR information for EDDM 190850Z 08007KT 050V120 CAVOK 14/08 Q1020 NOSIG
Getting current METAR information for EDDL 190850Z 15006KT 100V180 CAVOK 20/05 Q1019 NOSIG

Schedule Frequency

Route Map